Aktuální počasí v Česku a ve světě - METAR

Seznam meteostanic umístěných nejčasteji na letišti v ČR a ve světě

Vyhledat místa podle abecedy:
A B C D E F G H I J K L M N O P Q R S T U V W X Y Z

Filtrovat:

ID stanice:
a/nebo
Název místa (fulltext):
 
Místo (ID)Naposledy načteno 
Náměšť nad Oslavou (Namest n/O) 27.03.2023 00:00 UTC Zobrazit data
Místo: Náměšť nad Oslavou
Teplota: 5 °C (pocitová: 0.5 °C)
Vítr: 2 m/s z(e) 280°
Počasí: zataženo
Dohlednost: 30 km
Zákl. oblačnosti: 8/8 5100 m
Vlhkost: 87%
N'Djamena (FTTJ) 27.03.2023 00:00 UTC Zobrazit METAR
FTTJ 270000Z 02008KT 3500 DU NSC 28/M03 Q1011 TEMPO 2500 DU
Nairobi (HKJK) 27.03.2023 00:00 UTC Zobrazit METAR
HKJK 270000Z 05003KT 9999 SCT019 17/16 Q1020 NOSIG
Nantes/ Atlantique (LFRS) 27.03.2023 00:00 UTC Zobrazit METAR
LFRS 270000Z AUTO VRB03KT 9999 FEW020 OVC054 09/06 Q1020 NOSIG
Nassau (MYNN) 27.03.2023 00:00 UTC Zobrazit METAR
MYNN 270000Z 14009KT 9999 FEW020 26/21 A3009
Nauru (ANAU) Zatím nenačteno  
Nausori (NFNA) 26.03.2023 20:00 UTC Zobrazit METAR
NFNA 262000Z 00000KT 9999 FEW020 BKN290 26/24 Q1010
New York (KNYC) 26.03.2023 23:51 UTC Zobrazit METAR
KNYC 262351Z AUTO VRB04KT 10SM CLR 15/M08 A2997 RMK AO2 SLP141 T01501078 10172 20150 53018 $
Newcastle (EGNT) 26.03.2023 23:50 UTC Zobrazit METAR
EGNT 262350Z 31005KT 9999 FEW045 00/M01 Q1021
Niamey (DRRN) 27.03.2023 00:00 UTC Zobrazit METAR
DRRN 270000Z 08007KT CAVOK 32/03 Q1010 NOSIG
Nice/ Cote D'Azur (LFMN) 27.03.2023 00:00 UTC Zobrazit METAR
LFMN 270000Z 07008KT 360V130 9999 FEW073 BKN160 BKN210 13/03 Q1003 WS ALL RWY BECMG 28012KT
Niue Island (NIUE) 27.03.2023 00:00 UTC Zobrazit METAR
NIUE 270000Z AUTO 13002KT 27/25 Q1011
Nizhny Novgorod (UWGG) 13.10.2017 15:00 UTC Zobrazit METAR
UWGG 131500Z 9000 NSC 10/07 Q1006 R18R/290050 NOSIG RMK QFE747
North Caicos I. (MBNC) Zatím nenačteno  
Nouakchott (GQNN) 23.06.2016 11:00 UTC Zobrazit METAR
GQNN 231100Z 23009KT 180V250 7000 BKN010 25/18 Q1013 NOSIG
Noumea (NWWM) Zatím nenačteno  
Nuku'alofa (NFTF) 26.03.2023 18:00 UTC Zobrazit METAR
NFTF 261800Z 09008KT 0800 RA FEW008 SCT015 BKN040 OVC100 26/25 Q1012
Reklama


Newslettter

Počasí na Váš email

Každý den ráno pošleme předpověď
Emaily chodí ráno a bez reklamy



Odhlásit newsletter

Krásné fotografie přírody - (nejen) tapety na pozadí do počítače

Článek
Fotografie slunečné zimní krajiny
7. prosince 2022 17:13
Článek
Obrázky na téma slunečno
25. srpna 2022 05:03
Článek
Obrázky květin
5. června 2022 12:12
Článek
Obrázky východu slunce
1. června 2022 15:08

Přidejte si Počasí Slunečno na svůj Facebook
Facebook Počasí Slunečno.cz
Aplikace pro Windows 10/11 nebo chytré mobilní telefony
Stáhněte si aplikaci Slunečno.cz na Microsoft Store Stáhněte si aplikaci Slunečno.cz na Google Play

Nenašli jste zde to, co hledáte? Vyzkoušejte vylepšené vyhledávání Google pro celý internet: